VLG63EH LMML-LEBL
Flight info
| Callsign | VLG63EH |
|---|---|
| Flight time | N/A |
| Altitude | 34000 |
| Route | GZO M622 SOPIR DCT ADEXI DCT ADAMI DCT ALG DCT GINOX DCT KIFMI/N0411F280 DCT ELVOP DCT MUREN DCT CHELY DCT VERSO |
| Aircraft | A319/M-SDE3FGHIRWY/LB1 |
Departure
| Time | N/A |
|---|---|
| Airport | Malta International Airport (LMML) |
Arrival
| Time | 2026-05-06 21:04 |
|---|---|
| Airport | Josep Tarradellas Barcelona-El Prat Airport (LEBL) |
| Time | Latitude | Longitude | Altitude | Speed | Heading |
|---|---|---|---|---|---|
| 2026-05-06 19:35 | 37.42147 | 12.91285 | 33940 ft | 387 kts | 304° |
| 2026-05-06 19:35 | 37.45629 | 12.86107 | 33953 ft | 388 kts | 304° |
| 2026-05-06 19:36 | 37.49116 | 12.80917 | 33955 ft | 389 kts | 304° |
| 2026-05-06 19:36 | 37.52608 | 12.75712 | 33962 ft | 389 kts | 304° |
| 2026-05-06 19:37 | 37.56103 | 12.70492 | 33964 ft | 390 kts | 304° |
| 2026-05-06 19:37 | 37.59030 | 12.66116 | 33968 ft | 390 kts | 304° |
| 2026-05-06 19:38 | 37.63091 | 12.60032 | 33959 ft | 390 kts | 304° |
| 2026-05-06 19:38 | 37.66579 | 12.54799 | 33954 ft | 389 kts | 303° |
| 2026-05-06 19:39 | 37.70059 | 12.49570 | 33939 ft | 389 kts | 303° |
| 2026-05-06 19:39 | 37.73529 | 12.44346 | 33936 ft | 388 kts | 303° |
| 2026-05-06 19:40 | 37.76408 | 12.40006 | 33923 ft | 388 kts | 303° |
| 2026-05-06 19:40 | 37.80459 | 12.33888 | 33914 ft | 388 kts | 303° |
| 2026-05-06 19:41 | 37.83920 | 12.28653 | 33906 ft | 388 kts | 303° |
| 2026-05-06 19:41 | 37.87380 | 12.23410 | 33908 ft | 388 kts | 303° |
| 2026-05-06 19:42 | 37.90844 | 12.18154 | 33908 ft | 389 kts | 303° |
| 2026-05-06 19:42 | 37.94319 | 12.12871 | 33923 ft | 391 kts | 303° |
| 2026-05-06 19:43 | 37.97799 | 12.07572 | 33938 ft | 392 kts | 303° |
| 2026-05-06 19:43 | 38.01245 | 12.02228 | 33938 ft | 389 kts | 298° |
| 2026-05-06 19:44 | 38.04145 | 11.96444 | 33944 ft | 390 kts | 297° |
| 2026-05-06 19:44 | 38.07052 | 11.90619 | 33959 ft | 392 kts | 297° |
| 2026-05-06 19:45 | 38.09963 | 11.84795 | 33962 ft | 394 kts | 297° |
| 2026-05-06 19:45 | 38.12930 | 11.78851 | 33971 ft | 397 kts | 297° |
| 2026-05-06 19:46 | 38.15871 | 11.72949 | 33976 ft | 399 kts | 297° |
| 2026-05-06 19:46 | 38.18847 | 11.66966 | 33982 ft | 402 kts | 297° |
| 2026-05-06 19:47 | 38.21853 | 11.60905 | 33984 ft | 404 kts | 297° |
| 2026-05-06 19:47 | 38.24831 | 11.54888 | 33987 ft | 405 kts | 297° |
| 2026-05-06 19:48 | 38.27835 | 11.48804 | 33988 ft | 407 kts | 297° |
| 2026-05-06 19:48 | 38.30853 | 11.42683 | 33992 ft | 408 kts | 297° |
| 2026-05-06 19:49 | 38.33871 | 11.36548 | 33992 ft | 410 kts | 297° |
| 2026-05-06 19:49 | 38.36900 | 11.30382 | 33986 ft | 411 kts | 297° |
| 2026-05-06 19:50 | 38.39934 | 11.24192 | 33990 ft | 412 kts | 297° |
| 2026-05-06 19:50 | 38.42968 | 11.17991 | 33988 ft | 413 kts | 297° |
| 2026-05-06 19:51 | 38.46008 | 11.11765 | 33993 ft | 413 kts | 297° |
| 2026-05-06 19:51 | 38.49047 | 11.05530 | 33988 ft | 414 kts | 297° |
| 2026-05-06 19:52 | 38.52086 | 10.99282 | 33978 ft | 415 kts | 297° |
| 2026-05-06 19:52 | 38.55126 | 10.93021 | 33978 ft | 415 kts | 297° |
| 2026-05-06 19:53 | 38.57677 | 10.87756 | 33971 ft | 416 kts | 297° |
| 2026-05-06 19:53 | 38.60723 | 10.81458 | 33969 ft | 417 kts | 297° |
| 2026-05-06 19:54 | 38.63753 | 10.75182 | 33969 ft | 418 kts | 297° |
| 2026-05-06 19:54 | 38.66807 | 10.68845 | 33973 ft | 419 kts | 297° |
| 2026-05-06 19:55 | 38.69872 | 10.62471 | 33974 ft | 421 kts | 297° |
| 2026-05-06 19:55 | 38.72940 | 10.56078 | 33972 ft | 422 kts | 297° |
| 2026-05-06 19:56 | 38.76014 | 10.49661 | 33985 ft | 423 kts | 297° |
| 2026-05-06 19:56 | 38.79091 | 10.43224 | 33990 ft | 424 kts | 297° |
| 2026-05-06 19:57 | 38.82171 | 10.36768 | 33982 ft | 425 kts | 297° |
| 2026-05-06 19:57 | 38.85256 | 10.30290 | 33992 ft | 426 kts | 297° |
| 2026-05-06 19:58 | 38.88344 | 10.23790 | 33990 ft | 427 kts | 297° |
| 2026-05-06 19:58 | 38.91435 | 10.17273 | 33987 ft | 428 kts | 297° |
| 2026-05-06 19:59 | 38.94526 | 10.10740 | 33985 ft | 428 kts | 297° |
| 2026-05-06 19:59 | 38.97619 | 10.04190 | 33986 ft | 429 kts | 297° |
| 2026-05-06 20:00 | 39.00717 | 9.97617 | 33984 ft | 430 kts | 297° |
| 2026-05-06 20:00 | 39.03816 | 9.91027 | 33992 ft | 431 kts | 297° |
| 2026-05-06 20:01 | 39.06912 | 9.84430 | 33996 ft | 431 kts | 297° |
| 2026-05-06 20:01 | 39.10009 | 9.77819 | 33998 ft | 431 kts | 297° |
| 2026-05-06 20:02 | 39.13105 | 9.71194 | 34000 ft | 431 kts | 297° |
| 2026-05-06 20:02 | 39.16192 | 9.64576 | 33998 ft | 431 kts | 297° |
| 2026-05-06 20:03 | 39.19301 | 9.57898 | 33997 ft | 431 kts | 297° |
| 2026-05-06 20:03 | 39.22364 | 9.51304 | 34000 ft | 431 kts | 297° |
| 2026-05-06 20:04 | 39.25454 | 9.44638 | 33987 ft | 430 kts | 296° |
| 2026-05-06 20:04 | 39.28506 | 9.38039 | 33981 ft | 430 kts | 296° |
| 2026-05-06 20:05 | 39.31590 | 9.31356 | 33982 ft | 431 kts | 296° |
| 2026-05-06 20:05 | 39.34654 | 9.24703 | 33983 ft | 431 kts | 296° |
| 2026-05-06 20:06 | 39.37703 | 9.18070 | 33980 ft | 430 kts | 296° |
| 2026-05-06 20:06 | 39.40762 | 9.11398 | 33945 ft | 430 kts | 296° |
| 2026-05-06 20:07 | 39.43808 | 9.04744 | 33945 ft | 430 kts | 296° |
| 2026-05-06 20:07 | 39.46849 | 8.98083 | 33946 ft | 430 kts | 296° |
| 2026-05-06 20:08 | 39.49451 | 8.91223 | 33953 ft | 426 kts | 290° |
| 2026-05-06 20:08 | 39.51900 | 8.84236 | 33951 ft | 426 kts | 290° |
| 2026-05-06 20:09 | 39.54352 | 8.77253 | 33962 ft | 426 kts | 290° |
| 2026-05-06 20:09 | 39.56802 | 8.70272 | 33971 ft | 426 kts | 290° |
| 2026-05-06 20:10 | 39.59246 | 8.63286 | 33980 ft | 426 kts | 290° |
| 2026-05-06 20:10 | 39.61685 | 8.56288 | 33982 ft | 425 kts | 290° |
| 2026-05-06 20:11 | 39.64114 | 8.49301 | 33978 ft | 425 kts | 290° |
| 2026-05-06 20:11 | 39.66540 | 8.42303 | 33983 ft | 425 kts | 290° |
| 2026-05-06 20:12 | 39.68960 | 8.35305 | 33988 ft | 425 kts | 290° |
| 2026-05-06 20:12 | 39.71376 | 8.28298 | 33987 ft | 425 kts | 290° |
| 2026-05-06 20:13 | 39.73787 | 8.21284 | 33992 ft | 425 kts | 290° |
| 2026-05-06 20:13 | 39.76196 | 8.14273 | 33991 ft | 425 kts | 290° |
| 2026-05-06 20:14 | 39.78600 | 8.07269 | 33993 ft | 424 kts | 290° |
| 2026-05-06 20:14 | 39.80997 | 8.00262 | 33991 ft | 424 kts | 290° |
| 2026-05-06 20:15 | 39.83382 | 7.93266 | 33989 ft | 423 kts | 290° |
| 2026-05-06 20:15 | 39.85760 | 7.86271 | 33990 ft | 422 kts | 290° |
| 2026-05-06 20:16 | 39.88129 | 7.79288 | 33991 ft | 421 kts | 290° |
| 2026-05-06 20:16 | 39.90484 | 7.72326 | 33995 ft | 420 kts | 290° |
| 2026-05-06 20:17 | 39.92835 | 7.65360 | 33994 ft | 419 kts | 290° |
| 2026-05-06 20:17 | 39.95173 | 7.58415 | 33990 ft | 418 kts | 289° |
| 2026-05-06 20:18 | 39.97485 | 7.51531 | 33996 ft | 417 kts | 289° |
| 2026-05-06 20:18 | 39.99799 | 7.44621 | 33982 ft | 415 kts | 289° |
| 2026-05-06 20:19 | 40.02100 | 7.37736 | 33986 ft | 414 kts | 289° |
| 2026-05-06 20:19 | 40.04394 | 7.30855 | 33981 ft | 413 kts | 289° |
| 2026-05-06 20:20 | 40.06675 | 7.23996 | 33985 ft | 411 kts | 289° |
| 2026-05-06 20:20 | 40.08945 | 7.17153 | 33979 ft | 410 kts | 289° |
| 2026-05-06 20:21 | 40.11208 | 7.10317 | 33979 ft | 409 kts | 289° |
| 2026-05-06 20:21 | 40.13460 | 7.03494 | 33978 ft | 409 kts | 289° |
| 2026-05-06 20:22 | 40.15707 | 6.96673 | 33981 ft | 408 kts | 289° |
| 2026-05-06 20:22 | 40.17941 | 6.89872 | 33977 ft | 407 kts | 289° |
| 2026-05-06 20:23 | 40.20173 | 6.83062 | 33976 ft | 407 kts | 289° |
| 2026-05-06 20:23 | 40.22397 | 6.76260 | 33983 ft | 406 kts | 288° |
| 2026-05-06 20:24 | 40.24614 | 6.69462 | 33982 ft | 406 kts | 288° |
| 2026-05-06 20:24 | 40.26826 | 6.62663 | 33988 ft | 406 kts | 288° |
| 2026-05-06 20:25 | 40.29030 | 6.55873 | 33992 ft | 405 kts | 288° |
| 2026-05-06 20:25 | 40.31231 | 6.49073 | 33995 ft | 405 kts | 288° |
| 2026-05-06 20:26 | 40.33420 | 6.42295 | 33991 ft | 404 kts | 288° |
| 2026-05-06 20:26 | 40.35607 | 6.35507 | 33995 ft | 404 kts | 288° |
| 2026-05-06 20:27 | 40.37785 | 6.28728 | 33995 ft | 403 kts | 288° |
| 2026-05-06 20:27 | 40.39958 | 6.21949 | 33996 ft | 403 kts | 288° |
| 2026-05-06 20:28 | 40.42108 | 6.15226 | 33996 ft | 402 kts | 288° |
| 2026-05-06 20:28 | 40.44266 | 6.08462 | 33994 ft | 401 kts | 288° |
| 2026-05-06 20:29 | 40.46415 | 6.01709 | 33994 ft | 401 kts | 287° |
| 2026-05-06 20:29 | 40.48557 | 5.94958 | 33993 ft | 400 kts | 287° |
| 2026-05-06 20:30 | 40.51758 | 5.84843 | 33988 ft | 399 kts | 287° |
| 2026-05-06 20:31 | 40.53882 | 5.78109 | 33988 ft | 399 kts | 287° |
| 2026-05-06 20:31 | 40.56002 | 5.71374 | 33991 ft | 398 kts | 287° |
| 2026-05-06 20:32 | 40.58114 | 5.64643 | 33991 ft | 398 kts | 287° |
| 2026-05-06 20:32 | 40.60219 | 5.57921 | 33993 ft | 397 kts | 287° |
| 2026-05-06 20:33 | 40.62320 | 5.51196 | 33990 ft | 397 kts | 287° |
| 2026-05-06 20:33 | 40.64415 | 5.44469 | 33989 ft | 397 kts | 287° |
| 2026-05-06 20:34 | 40.66505 | 5.37745 | 33989 ft | 396 kts | 287° |
| 2026-05-06 20:34 | 40.68586 | 5.31033 | 33995 ft | 396 kts | 287° |
| 2026-05-06 20:35 | 40.70328 | 5.25400 | 33995 ft | 396 kts | 286° |
| 2026-05-06 20:35 | 40.72401 | 5.18685 | 33995 ft | 395 kts | 286° |
| 2026-05-06 20:36 | 40.74468 | 5.11970 | 33995 ft | 395 kts | 286° |
| 2026-05-06 20:36 | 40.76512 | 5.05311 | 33995 ft | 394 kts | 286° |
| 2026-05-06 20:37 | 40.78566 | 4.98606 | 33996 ft | 394 kts | 286° |
| 2026-05-06 20:37 | 40.80614 | 4.91903 | 33996 ft | 393 kts | 286° |
| 2026-05-06 20:38 | 40.82655 | 4.85204 | 33994 ft | 393 kts | 286° |
| 2026-05-06 20:38 | 40.84688 | 4.78516 | 33990 ft | 393 kts | 286° |
| 2026-05-06 20:39 | 40.86720 | 4.71816 | 33990 ft | 392 kts | 285° |
| 2026-05-06 20:39 | 40.88743 | 4.65128 | 33989 ft | 392 kts | 285° |
| 2026-05-06 20:40 | 40.90751 | 4.58426 | 33984 ft | 390 kts | 283° |
| 2026-05-06 20:40 | 40.91310 | 4.54979 | 33985 ft | 381 kts | 270° |
| 2026-05-06 20:40 | 40.91226 | 4.51510 | 33982 ft | 377 kts | 262° |
| 2026-05-06 20:41 | 40.90697 | 4.44618 | 33982 ft | 377 kts | 262° |
| 2026-05-06 20:41 | 40.90183 | 4.37723 | 33985 ft | 377 kts | 262° |
| 2026-05-06 20:42 | 40.89665 | 4.30827 | 33988 ft | 377 kts | 262° |
| 2026-05-06 20:42 | 40.89143 | 4.23945 | 33987 ft | 377 kts | 262° |
| 2026-05-06 20:43 | 40.88614 | 4.17033 | 33990 ft | 377 kts | 262° |
| 2026-05-06 20:43 | 40.88083 | 4.10147 | 33991 ft | 377 kts | 262° |
| 2026-05-06 20:44 | 40.87547 | 4.03251 | 33997 ft | 377 kts | 262° |
| 2026-05-06 20:44 | 40.87007 | 3.96365 | 33989 ft | 377 kts | 262° |
| 2026-05-06 20:45 | 40.86464 | 3.89482 | 33993 ft | 377 kts | 262° |
| 2026-05-06 20:45 | 40.85918 | 3.82605 | 33785 ft | 376 kts | 262° |
| 2026-05-06 20:45 | 40.85663 | 3.79163 | 33501 ft | 377 kts | 265° |
| 2026-05-06 20:46 | 40.85860 | 3.75685 | 33247 ft | 384 kts | 274° |
| 2026-05-06 20:46 | 40.86271 | 3.72186 | 32982 ft | 386 kts | 274° |
| 2026-05-06 20:46 | 40.86692 | 3.68679 | 32714 ft | 388 kts | 274° |
| 2026-05-06 20:46 | 40.87112 | 3.65154 | 32453 ft | 389 kts | 274° |
| 2026-05-06 20:47 | 40.87528 | 3.61618 | 32194 ft | 390 kts | 274° |
| 2026-05-06 20:47 | 40.87941 | 3.58070 | 31940 ft | 392 kts | 274° |
| 2026-05-06 20:47 | 40.88354 | 3.54506 | 31683 ft | 393 kts | 274° |
| 2026-05-06 20:47 | 40.88824 | 3.50935 | 31434 ft | 396 kts | 276° |
| 2026-05-06 20:48 | 40.89357 | 3.47355 | 30987 ft | 399 kts | 277° |
| 2026-05-06 20:48 | 40.89906 | 3.43732 | 30016 ft | 406 kts | 277° |
| 2026-05-06 20:48 | 40.90459 | 3.40022 | 28789 ft | 414 kts | 277° |
| 2026-05-06 20:48 | 40.91008 | 3.36293 | 27962 ft | 412 kts | 277° |
| 2026-05-06 20:49 | 40.91545 | 3.32612 | 27458 ft | 402 kts | 277° |
| 2026-05-06 20:49 | 40.92064 | 3.29022 | 26763 ft | 398 kts | 277° |
| 2026-05-06 20:49 | 40.92579 | 3.25427 | 25984 ft | 397 kts | 277° |
| 2026-05-06 20:49 | 40.93090 | 3.21845 | 25214 ft | 395 kts | 277° |
| 2026-05-06 20:50 | 40.93597 | 3.18276 | 24458 ft | 395 kts | 277° |
| 2026-05-06 20:50 | 40.94102 | 3.14715 | 23685 ft | 395 kts | 277° |
| 2026-05-06 20:50 | 40.94607 | 3.11151 | 22824 ft | 394 kts | 278° |
| 2026-05-06 20:50 | 40.95109 | 3.07602 | 22045 ft | 391 kts | 278° |
| 2026-05-06 20:51 | 40.95607 | 3.04083 | 21265 ft | 389 kts | 278° |
| 2026-05-06 20:51 | 40.96103 | 3.00566 | 20478 ft | 386 kts | 278° |
| 2026-05-06 20:51 | 40.96588 | 2.97117 | 19711 ft | 376 kts | 278° |
| 2026-05-06 20:51 | 40.97059 | 2.93775 | 19150 ft | 362 kts | 278° |
| 2026-05-06 20:52 | 40.97512 | 2.90555 | 18572 ft | 351 kts | 278° |
| 2026-05-06 20:52 | 40.97946 | 2.87449 | 17979 ft | 349 kts | 279° |
| 2026-05-06 20:52 | 40.98393 | 2.84236 | 17385 ft | 349 kts | 279° |
| 2026-05-06 20:52 | 40.98828 | 2.81106 | 16831 ft | 349 kts | 279° |
| 2026-05-06 20:53 | 40.99275 | 2.77891 | 16248 ft | 352 kts | 279° |
| 2026-05-06 20:53 | 40.99716 | 2.74713 | 15676 ft | 349 kts | 279° |
| 2026-05-06 20:53 | 41.00146 | 2.71608 | 15113 ft | 347 kts | 279° |
| 2026-05-06 20:53 | 41.00585 | 2.68434 | 14542 ft | 345 kts | 279° |
| 2026-05-06 20:54 | 41.01016 | 2.65310 | 13973 ft | 344 kts | 280° |
| 2026-05-06 20:54 | 41.01444 | 2.62203 | 13388 ft | 343 kts | 280° |
| 2026-05-06 20:54 | 41.01869 | 2.59108 | 12826 ft | 340 kts | 280° |
| 2026-05-06 20:54 | 41.02289 | 2.56049 | 12276 ft | 337 kts | 280° |
| 2026-05-06 20:55 | 41.02707 | 2.53003 | 11732 ft | 335 kts | 280° |
| 2026-05-06 20:55 | 41.03119 | 2.49996 | 11306 ft | 329 kts | 280° |
| 2026-05-06 20:55 | 41.03519 | 2.47073 | 11167 ft | 315 kts | 280° |
| 2026-05-06 20:55 | 41.03899 | 2.44291 | 11044 ft | 301 kts | 280° |
| 2026-05-06 20:56 | 41.04263 | 2.41609 | 10931 ft | 288 kts | 280° |
| 2026-05-06 20:56 | 41.04615 | 2.39013 | 10593 ft | 285 kts | 280° |
| 2026-05-06 20:56 | 41.04962 | 2.36449 | 10294 ft | 280 kts | 280° |
| 2026-05-06 20:56 | 41.05302 | 2.33936 | 9934 ft | 278 kts | 280° |
| 2026-05-06 20:57 | 41.05646 | 2.31382 | 9501 ft | 277 kts | 280° |
| 2026-05-06 20:57 | 41.05983 | 2.28880 | 9102 ft | 276 kts | 280° |
| 2026-05-06 20:57 | 41.06318 | 2.26386 | 8673 ft | 275 kts | 280° |
| 2026-05-06 20:57 | 41.06649 | 2.23924 | 8486 ft | 265 kts | 280° |
| 2026-05-06 20:58 | 41.06964 | 2.21577 | 8418 ft | 252 kts | 280° |
| 2026-05-06 20:58 | 41.07317 | 2.19351 | 8124 ft | 243 kts | 284° |
| 2026-05-06 20:58 | 41.07733 | 2.17173 | 7610 ft | 244 kts | 284° |
| 2026-05-06 20:58 | 41.08155 | 2.14985 | 7091 ft | 246 kts | 284° |
| 2026-05-06 20:59 | 41.08577 | 2.12786 | 6582 ft | 247 kts | 284° |
| 2026-05-06 20:59 | 41.09004 | 2.10545 | 6045 ft | 248 kts | 284° |
| 2026-05-06 20:59 | 41.09427 | 2.08314 | 5472 ft | 250 kts | 284° |
| 2026-05-06 20:59 | 41.09852 | 2.06067 | 4911 ft | 252 kts | 284° |
| 2026-05-06 21:00 | 41.10328 | 2.03831 | 4361 ft | 252 kts | 295° |
| 2026-05-06 21:00 | 41.11492 | 2.02149 | 3812 ft | 253 kts | 332° |
| 2026-05-06 21:00 | 41.13203 | 2.01709 | 3290 ft | 255 kts | 5° |
| 2026-05-06 21:00 | 41.14924 | 2.02185 | 2899 ft | 250 kts | 16° |
| 2026-05-06 21:01 | 41.16534 | 2.02906 | 2553 ft | 237 kts | 19° |
| 2026-05-06 21:01 | 41.18057 | 2.03598 | 2245 ft | 225 kts | 18° |
| 2026-05-06 21:01 | 41.19517 | 2.04267 | 1943 ft | 214 kts | 18° |
| 2026-05-06 21:01 | 41.20896 | 2.04892 | 1682 ft | 204 kts | 19° |
| 2026-05-06 21:02 | 41.22184 | 2.05479 | 1440 ft | 189 kts | 19° |
| 2026-05-06 21:02 | 41.23381 | 2.06024 | 1168 ft | 175 kts | 19° |
| 2026-05-06 21:02 | 41.24379 | 2.06479 | 953 ft | 155 kts | 19° |
| 2026-05-06 21:02 | 41.25349 | 2.06921 | 754 ft | 131 kts | 19° |
| 2026-05-06 21:03 | 41.26170 | 2.07295 | 582 ft | 119 kts | 19° |
| 2026-05-06 21:03 | 41.26964 | 2.07654 | 416 ft | 118 kts | 19° |
| 2026-05-06 21:03 | 41.27500 | 2.07896 | 311 ft | 118 kts | 20° |
| 2026-05-06 21:03 | 41.28285 | 2.08257 | 138 ft | 117 kts | 20° |
| 2026-05-06 21:04 | 41.29077 | 2.08622 | 23 ft | 115 kts | 19° |
| 2026-05-06 21:04 | 41.29640 | 2.08879 | 5 ft | 47 kts | 18° |
| 2026-05-06 21:04 | 41.29954 | 2.09025 | 6 ft | 47 kts | 19° |
| 2026-05-06 21:04 | 41.30141 | 2.09025 | 6 ft | 15 kts | 266° |
| 2026-05-06 21:05 | 41.30047 | 2.08860 | 4 ft | 33 kts | 241° |
| 2026-05-06 21:05 | 41.29870 | 2.08577 | 5 ft | 46 kts | 216° |
| 2026-05-06 21:05 | 41.29796 | 2.08501 | 4 ft | 0 kts | 215° |
| 2026-05-06 21:05 | 41.29795 | 2.08501 | 4 ft | 1 kts | 215° |
| 2026-05-06 21:06 | 41.29762 | 2.08470 | 4 ft | 14 kts | 210° |
| 2026-05-06 21:06 | 41.29636 | 2.08484 | 3 ft | 19 kts | 206° |
| 2026-05-06 21:06 | 41.29561 | 2.08290 | 3 ft | 30 kts | 221° |
| 2026-05-06 21:06 | 41.29391 | 2.08343 | 3 ft | 24 kts | 199° |
| 2026-05-06 21:07 | 41.29320 | 2.08181 | 3 ft | 21 kts | 240° |
| 2026-05-06 21:07 | 41.29289 | 2.08097 | 4 ft | 1 kts | 243° |
| 2026-05-06 21:07 | 41.29272 | 2.08088 | 3 ft | 7 kts | 184° |
| 2026-05-06 21:07 | 41.29211 | 2.08118 | 3 ft | 3 kts | 154° |
| 2026-05-06 21:08 | 41.29209 | 2.08120 | 4 ft | 0 kts | 155° |